sensor_id;sensor_type;location;lat;lon;timestamp;P1;durP1;ratioP1;P2;durP2;ratioP2
43457;SDS011;29046;54.184;18.680;2023-11-19T00:00:10;27.13;;;11.68;;
43457;SDS011;29046;54.184;18.680;2023-11-19T00:02:59;24.70;;;10.00;;
43457;SDS011;29046;54.184;18.680;2023-11-19T00:05:28;31.33;;;15.82;;
43457;SDS011;29046;54.184;18.680;2023-11-19T00:07:56;23.85;;;14.20;;
43457;SDS011;29046;54.184;18.680;2023-11-19T00:10:24;22.85;;;12.77;;
43457;SDS011;29046;54.184;18.680;2023-11-19T00:12:51;29.15;;;15.40;;
43457;SDS011;29046;54.184;18.680;2023-11-19T00:15:19;31.15;;;16.35;;
43457;SDS011;29046;54.184;18.680;2023-11-19T00:17:47;26.35;;;14.15;;
43457;SDS011;29046;54.184;18.680;2023-11-19T00:20:17;27.30;;;13.55;;
43457;SDS011;29046;54.184;18.680;2023-11-19T00:22:45;25.73;;;13.88;;
43457;SDS011;29046;54.184;18.680;2023-11-19T00:25:16;28.75;;;14.15;;
43457;SDS011;29046;54.184;18.680;2023-11-19T00:27:44;31.75;;;14.75;;
43457;SDS011;29046;54.184;18.680;2023-11-19T00:30:14;24.10;;;12.55;;
43457;SDS011;29046;54.184;18.680;2023-11-19T00:32:42;26.35;;;14.52;;
43457;SDS011;29046;54.184;18.680;2023-11-19T00:35:09;37.80;;;17.33;;
43457;SDS011;29046;54.184;18.680;2023-11-19T00:37:37;34.78;;;17.55;;
43457;SDS011;29046;54.184;18.680;2023-11-19T00:40:05;22.63;;;11.93;;
43457;SDS011;29046;54.184;18.680;2023-11-19T00:42:33;30.55;;;15.35;;
43457;SDS011;29046;54.184;18.680;2023-11-19T00:45:00;31.52;;;15.98;;
43457;SDS011;29046;54.184;18.680;2023-11-19T00:47:28;31.55;;;15.65;;
43457;SDS011;29046;54.184;18.680;2023-11-19T00:49:58;26.90;;;13.35;;
43457;SDS011;29046;54.184;18.680;2023-11-19T00:52:25;28.55;;;14.73;;
43457;SDS011;29046;54.184;18.680;2023-11-19T00:54:53;30.45;;;17.13;;
43457;SDS011;29046;54.184;18.680;2023-11-19T00:57:20;26.42;;;13.70;;
43457;SDS011;29046;54.184;18.680;2023-11-19T00:59:48;38.20;;;15.10;;
43457;SDS011;29046;54.184;18.680;2023-11-19T01:02:15;35.03;;;15.95;;
43457;SDS011;29046;54.184;18.680;2023-11-19T01:04:43;27.05;;;14.65;;
43457;SDS011;29046;54.184;18.680;2023-11-19T01:07:11;31.67;;;15.18;;
43457;SDS011;29046;54.184;18.680;2023-11-19T01:09:43;34.78;;;16.13;;
43457;SDS011;29046;54.184;18.680;2023-11-19T01:12:10;33.78;;;16.48;;
43457;SDS011;29046;54.184;18.680;2023-11-19T01:14:38;33.15;;;16.50;;
43457;SDS011;29046;54.184;18.680;2023-11-19T01:17:05;32.17;;;16.15;;
43457;SDS011;29046;54.184;18.680;2023-11-19T01:19:33;28.70;;;14.60;;
43457;SDS011;29046;54.184;18.680;2023-11-19T01:22:01;35.58;;;15.73;;
43457;SDS011;29046;54.184;18.680;2023-11-19T01:24:29;29.25;;;15.57;;
43457;SDS011;29046;54.184;18.680;2023-11-19T01:26:57;31.33;;;16.77;;
43457;SDS011;29046;54.184;18.680;2023-11-19T01:29:27;33.65;;;15.15;;
43457;SDS011;29046;54.184;18.680;2023-11-19T01:31:54;33.63;;;16.00;;
43457;SDS011;29046;54.184;18.680;2023-11-19T01:34:22;30.90;;;14.85;;
43457;SDS011;29046;54.184;18.680;2023-11-19T01:36:49;33.38;;;16.50;;
43457;SDS011;29046;54.184;18.680;2023-11-19T01:39:17;33.47;;;16.88;;
43457;SDS011;29046;54.184;18.680;2023-11-19T01:41:46;31.33;;;15.70;;
43457;SDS011;29046;54.184;18.680;2023-11-19T01:44:14;33.80;;;16.23;;
43457;SDS011;29046;54.184;18.680;2023-11-19T01:46:43;28.20;;;15.52;;
43457;SDS011;29046;54.184;18.680;2023-11-19T01:49:12;32.78;;;15.63;;
43457;SDS011;29046;54.184;18.680;2023-11-19T01:51:41;36.45;;;17.42;;
43457;SDS011;29046;54.184;18.680;2023-11-19T01:54:09;34.13;;;16.00;;
43457;SDS011;29046;54.184;18.680;2023-11-19T01:56:37;34.58;;;14.18;;
43457;SDS011;29046;54.184;18.680;2023-11-19T01:59:07;27.80;;;16.15;;
43457;SDS011;29046;54.184;18.680;2023-11-19T02:01:35;31.10;;;15.23;;
43457;SDS011;29046;54.184;18.680;2023-11-19T02:04:07;29.92;;;16.17;;
43457;SDS011;29046;54.184;18.680;2023-11-19T02:06:36;32.92;;;16.60;;
43457;SDS011;29046;54.184;18.680;2023-11-19T02:09:05;27.08;;;15.85;;
43457;SDS011;29046;54.184;18.680;2023-11-19T02:11:34;32.13;;;16.00;;
43457;SDS011;29046;54.184;18.680;2023-11-19T02:14:02;31.73;;;17.23;;
43457;SDS011;29046;54.184;18.680;2023-11-19T02:16:33;30.05;;;16.65;;
43457;SDS011;29046;54.184;18.680;2023-11-19T02:19:01;36.13;;;15.73;;
43457;SDS011;29046;54.184;18.680;2023-11-19T02:21:30;35.28;;;17.73;;
43457;SDS011;29046;54.184;18.680;2023-11-19T02:23:57;37.45;;;17.05;;
43457;SDS011;29046;54.184;18.680;2023-11-19T02:26:29;38.78;;;18.38;;
43457;SDS011;29046;54.184;18.680;2023-11-19T02:29:00;36.22;;;19.33;;
43457;SDS011;29046;54.184;18.680;2023-11-19T02:31:33;31.83;;;17.27;;
43457;SDS011;29046;54.184;18.680;2023-11-19T02:34:02;38.20;;;17.85;;
43457;SDS011;29046;54.184;18.680;2023-11-19T02:36:29;39.95;;;18.58;;
43457;SDS011;29046;54.184;18.680;2023-11-19T02:38:58;37.83;;;18.38;;
43457;SDS011;29046;54.184;18.680;2023-11-19T02:41:26;33.05;;;17.13;;
43457;SDS011;29046;54.184;18.680;2023-11-19T02:43:54;33.67;;;16.50;;
43457;SDS011;29046;54.184;18.680;2023-11-19T02:46:21;27.92;;;15.05;;
43457;SDS011;29046;54.184;18.680;2023-11-19T02:48:49;26.83;;;13.48;;
43457;SDS011;29046;54.184;18.680;2023-11-19T02:51:16;33.67;;;16.67;;
43457;SDS011;29046;54.184;18.680;2023-11-19T02:53:45;30.55;;;15.93;;
43457;SDS011;29046;54.184;18.680;2023-11-19T02:56:14;30.30;;;14.05;;
43457;SDS011;29046;54.184;18.680;2023-11-19T02:58:47;26.08;;;15.30;;
43457;SDS011;29046;54.184;18.680;2023-11-19T03:01:21;27.77;;;15.02;;
43457;SDS011;29046;54.184;18.680;2023-11-19T03:03:59;26.57;;;14.27;;
43457;SDS011;29046;54.184;18.680;2023-11-19T03:06:29;31.52;;;15.10;;
43457;SDS011;29046;54.184;18.680;2023-11-19T03:08:56;29.60;;;15.02;;
43457;SDS011;29046;54.184;18.680;2023-11-19T03:11:24;26.90;;;13.60;;
43457;SDS011;29046;54.184;18.680;2023-11-19T03:13:52;28.38;;;12.90;;
43457;SDS011;29046;54.184;18.680;2023-11-19T03:16:19;27.35;;;13.07;;
43457;SDS011;29046;54.184;18.680;2023-11-19T03:18:47;20.95;;;11.90;;
43457;SDS011;29046;54.184;18.680;2023-11-19T03:21:15;24.60;;;13.55;;
43457;SDS011;29046;54.184;18.680;2023-11-19T03:23:42;29.17;;;13.35;;
43457;SDS011;29046;54.184;18.680;2023-11-19T03:26:10;20.90;;;11.48;;
43457;SDS011;29046;54.184;18.680;2023-11-19T03:28:38;25.20;;;12.75;;
43457;SDS011;29046;54.184;18.680;2023-11-19T03:31:05;27.25;;;13.30;;
43457;SDS011;29046;54.184;18.680;2023-11-19T03:33:35;24.58;;;14.52;;
43457;SDS011;29046;54.184;18.680;2023-11-19T03:36:04;27.95;;;14.70;;
43457;SDS011;29046;54.184;18.680;2023-11-19T03:38:32;29.42;;;13.55;;
43457;SDS011;29046;54.184;18.680;2023-11-19T03:41:00;26.13;;;14.55;;
43457;SDS011;29046;54.184;18.680;2023-11-19T03:43:27;37.58;;;15.43;;
43457;SDS011;29046;54.184;18.680;2023-11-19T03:45:55;31.40;;;15.52;;
43457;SDS011;29046;54.184;18.680;2023-11-19T03:48:23;29.92;;;14.32;;
43457;SDS011;29046;54.184;18.680;2023-11-19T03:50:50;28.27;;;14.48;;
43457;SDS011;29046;54.184;18.680;2023-11-19T03:53:18;28.33;;;14.68;;
43457;SDS011;29046;54.184;18.680;2023-11-19T03:55:46;25.27;;;12.60;;
43457;SDS011;29046;54.184;18.680;2023-11-19T03:58:13;28.67;;;13.05;;
43457;SDS011;29046;54.184;18.680;2023-11-19T04:00:41;29.73;;;14.30;;
43457;SDS011;29046;54.184;18.680;2023-11-19T04:03:09;28.08;;;12.98;;
43457;SDS011;29046;54.184;18.680;2023-11-19T04:05:36;28.02;;;14.05;;
43457;SDS011;29046;54.184;18.680;2023-11-19T04:08:04;26.52;;;13.80;;
43457;SDS011;29046;54.184;18.680;2023-11-19T04:10:32;27.55;;;13.93;;
43457;SDS011;29046;54.184;18.680;2023-11-19T04:13:00;32.90;;;15.18;;
43457;SDS011;29046;54.184;18.680;2023-11-19T04:15:27;34.42;;;15.95;;
43457;SDS011;29046;54.184;18.680;2023-11-19T04:17:55;33.22;;;15.40;;
43457;SDS011;29046;54.184;18.680;2023-11-19T04:20:23;22.90;;;12.05;;
43457;SDS011;29046;54.184;18.680;2023-11-19T04:22:51;34.75;;;14.93;;
43457;SDS011;29046;54.184;18.680;2023-11-19T04:25:20;27.15;;;13.13;;
43457;SDS011;29046;54.184;18.680;2023-11-19T04:27:49;25.42;;;12.32;;
43457;SDS011;29046;54.184;18.680;2023-11-19T04:30:17;27.05;;;13.32;;
43457;SDS011;29046;54.184;18.680;2023-11-19T04:32:48;33.45;;;13.77;;
43457;SDS011;29046;54.184;18.680;2023-11-19T04:35:16;32.92;;;14.95;;
43457;SDS011;29046;54.184;18.680;2023-11-19T04:37:43;26.42;;;13.18;;
43457;SDS011;29046;54.184;18.680;2023-11-19T04:40:11;33.63;;;15.77;;
43457;SDS011;29046;54.184;18.680;2023-11-19T04:42:39;24.77;;;12.23;;
43457;SDS011;29046;54.184;18.680;2023-11-19T04:45:07;23.55;;;12.93;;
43457;SDS011;29046;54.184;18.680;2023-11-19T04:47:37;26.50;;;12.68;;
43457;SDS011;29046;54.184;18.680;2023-11-19T04:50:05;24.08;;;11.88;;
43457;SDS011;29046;54.184;18.680;2023-11-19T04:52:33;25.27;;;11.68;;
43457;SDS011;29046;54.184;18.680;2023-11-19T04:55:01;28.08;;;13.63;;
43457;SDS011;29046;54.184;18.680;2023-11-19T04:57:29;28.58;;;13.43;;
43457;SDS011;29046;54.184;18.680;2023-11-19T04:59:57;25.77;;;12.80;;
43457;SDS011;29046;54.184;18.680;2023-11-19T05:02:25;27.13;;;12.43;;
43457;SDS011;29046;54.184;18.680;2023-11-19T05:04:53;28.48;;;14.65;;
43457;SDS011;29046;54.184;18.680;2023-11-19T05:07:21;26.23;;;13.00;;
43457;SDS011;29046;54.184;18.680;2023-11-19T05:09:49;29.73;;;13.80;;
43457;SDS011;29046;54.184;18.680;2023-11-19T05:12:16;24.90;;;14.45;;
43457;SDS011;29046;54.184;18.680;2023-11-19T05:14:44;25.63;;;12.73;;
43457;SDS011;29046;54.184;18.680;2023-11-19T05:17:17;26.07;;;13.57;;
43457;SDS011;29046;54.184;18.680;2023-11-19T05:19:45;26.77;;;13.55;;
43457;SDS011;29046;54.184;18.680;2023-11-19T05:22:14;26.80;;;13.05;;
43457;SDS011;29046;54.184;18.680;2023-11-19T05:24:42;30.45;;;14.20;;
43457;SDS011;29046;54.184;18.680;2023-11-19T05:27:09;30.10;;;14.13;;
43457;SDS011;29046;54.184;18.680;2023-11-19T05:29:37;27.23;;;15.00;;
43457;SDS011;29046;54.184;18.680;2023-11-19T05:32:06;28.73;;;14.93;;
43457;SDS011;29046;54.184;18.680;2023-11-19T05:34:33;27.88;;;14.88;;
43457;SDS011;29046;54.184;18.680;2023-11-19T05:37:01;29.13;;;14.55;;
43457;SDS011;29046;54.184;18.680;2023-11-19T05:39:30;25.95;;;13.85;;
43457;SDS011;29046;54.184;18.680;2023-11-19T05:41:58;31.75;;;15.93;;
43457;SDS011;29046;54.184;18.680;2023-11-19T05:44:26;26.67;;;14.15;;
43457;SDS011;29046;54.184;18.680;2023-11-19T05:46:54;27.00;;;15.60;;
43457;SDS011;29046;54.184;18.680;2023-11-19T05:49:21;36.95;;;16.00;;
43457;SDS011;29046;54.184;18.680;2023-11-19T05:51:50;29.17;;;15.32;;
43457;SDS011;29046;54.184;18.680;2023-11-19T05:54:18;35.40;;;18.13;;
43457;SDS011;29046;54.184;18.680;2023-11-19T05:56:47;50.97;;;23.30;;
43457;SDS011;29046;54.184;18.680;2023-11-19T05:59:15;53.65;;;22.00;;
43457;SDS011;29046;54.184;18.680;2023-11-19T06:01:44;42.45;;;19.63;;
43457;SDS011;29046;54.184;18.680;2023-11-19T06:04:12;40.25;;;18.70;;
43457;SDS011;29046;54.184;18.680;2023-11-19T06:06:40;29.10;;;15.38;;
43457;SDS011;29046;54.184;18.680;2023-11-19T06:09:07;40.25;;;16.73;;
43457;SDS011;29046;54.184;18.680;2023-11-19T06:11:40;29.40;;;16.35;;
43457;SDS011;29046;54.184;18.680;2023-11-19T06:14:07;37.45;;;16.50;;
43457;SDS011;29046;54.184;18.680;2023-11-19T06:16:35;30.15;;;14.80;;
43457;SDS011;29046;54.184;18.680;2023-11-19T06:19:03;31.27;;;14.48;;
43457;SDS011;29046;54.184;18.680;2023-11-19T06:21:31;31.27;;;14.73;;
43457;SDS011;29046;54.184;18.680;2023-11-19T06:23:59;28.30;;;13.80;;
43457;SDS011;29046;54.184;18.680;2023-11-19T06:26:26;29.77;;;14.77;;
43457;SDS011;29046;54.184;18.680;2023-11-19T06:28:54;26.98;;;14.18;;
43457;SDS011;29046;54.184;18.680;2023-11-19T06:31:22;31.77;;;15.30;;
43457;SDS011;29046;54.184;18.680;2023-11-19T06:33:50;33.78;;;15.60;;
43457;SDS011;29046;54.184;18.680;2023-11-19T06:36:18;26.77;;;13.25;;
43457;SDS011;29046;54.184;18.680;2023-11-19T06:38:45;35.25;;;15.25;;
43457;SDS011;29046;54.184;18.680;2023-11-19T06:41:13;34.90;;;15.48;;
43457;SDS011;29046;54.184;18.680;2023-11-19T06:43:40;31.63;;;13.60;;
43457;SDS011;29046;54.184;18.680;2023-11-19T06:46:15;26.58;;;15.30;;
43457;SDS011;29046;54.184;18.680;2023-11-19T06:48:43;32.40;;;15.07;;
43457;SDS011;29046;54.184;18.680;2023-11-19T06:51:12;23.75;;;12.82;;
43457;SDS011;29046;54.184;18.680;2023-11-19T06:53:40;32.47;;;16.15;;
43457;SDS011;29046;54.184;18.680;2023-11-19T06:56:23;31.17;;;15.55;;
43457;SDS011;29046;54.184;18.680;2023-11-19T06:58:51;36.53;;;15.80;;
43457;SDS011;29046;54.184;18.680;2023-11-19T07:01:19;27.90;;;14.55;;
43457;SDS011;29046;54.184;18.680;2023-11-19T07:03:47;23.48;;;12.45;;
43457;SDS011;29046;54.184;18.680;2023-11-19T07:06:15;21.90;;;13.50;;
43457;SDS011;29046;54.184;18.680;2023-11-19T07:08:43;29.55;;;13.10;;
43457;SDS011;29046;54.184;18.680;2023-11-19T07:11:14;28.38;;;15.18;;
43457;SDS011;29046;54.184;18.680;2023-11-19T07:13:43;30.40;;;14.18;;
43457;SDS011;29046;54.184;18.680;2023-11-19T07:16:14;28.58;;;13.77;;
43457;SDS011;29046;54.184;18.680;2023-11-19T07:18:41;26.02;;;14.85;;
43457;SDS011;29046;54.184;18.680;2023-11-19T07:21:10;29.00;;;15.25;;
43457;SDS011;29046;54.184;18.680;2023-11-19T07:23:38;25.45;;;13.55;;
43457;SDS011;29046;54.184;18.680;2023-11-19T07:26:06;24.48;;;13.32;;
43457;SDS011;29046;54.184;18.680;2023-11-19T07:28:36;28.10;;;13.95;;
43457;SDS011;29046;54.184;18.680;2023-11-19T07:31:06;28.85;;;14.70;;
43457;SDS011;29046;54.184;18.680;2023-11-19T07:33:37;33.95;;;14.95;;
43457;SDS011;29046;54.184;18.680;2023-11-19T07:36:09;27.65;;;15.98;;
43457;SDS011;29046;54.184;18.680;2023-11-19T07:38:37;24.92;;;13.65;;
43457;SDS011;29046;54.184;18.680;2023-11-19T07:41:05;26.38;;;13.55;;
43457;SDS011;29046;54.184;18.680;2023-11-19T07:43:33;26.48;;;14.20;;
43457;SDS011;29046;54.184;18.680;2023-11-19T07:46:01;25.45;;;13.27;;
43457;SDS011;29046;54.184;18.680;2023-11-19T07:48:30;24.90;;;13.07;;
43457;SDS011;29046;54.184;18.680;2023-11-19T07:50:58;26.52;;;14.75;;
43457;SDS011;29046;54.184;18.680;2023-11-19T07:53:26;33.00;;;15.70;;
43457;SDS011;29046;54.184;18.680;2023-11-19T07:55:53;22.67;;;10.75;;
43457;SDS011;29046;54.184;18.680;2023-11-19T07:58:21;23.65;;;10.55;;
43457;SDS011;29046;54.184;18.680;2023-11-19T08:00:48;28.58;;;14.65;;
43457;SDS011;29046;54.184;18.680;2023-11-19T08:03:16;24.20;;;13.10;;
43457;SDS011;29046;54.184;18.680;2023-11-19T08:05:45;28.38;;;13.65;;
43457;SDS011;29046;54.184;18.680;2023-11-19T08:08:13;23.48;;;12.75;;
43457;SDS011;29046;54.184;18.680;2023-11-19T08:10:41;25.40;;;12.32;;
43457;SDS011;29046;54.184;18.680;2023-11-19T08:13:08;30.25;;;12.80;;
43457;SDS011;29046;54.184;18.680;2023-11-19T08:15:36;24.20;;;13.25;;
43457;SDS011;29046;54.184;18.680;2023-11-19T08:18:04;24.75;;;14.00;;
43457;SDS011;29046;54.184;18.680;2023-11-19T08:20:32;24.45;;;13.13;;
43457;SDS011;29046;54.184;18.680;2023-11-19T08:23:01;23.73;;;11.60;;
43457;SDS011;29046;54.184;18.680;2023-11-19T08:25:30;23.55;;;12.95;;
43457;SDS011;29046;54.184;18.680;2023-11-19T08:28:00;30.13;;;14.30;;
43457;SDS011;29046;54.184;18.680;2023-11-19T08:30:30;27.25;;;14.85;;
43457;SDS011;29046;54.184;18.680;2023-11-19T08:32:58;27.50;;;14.35;;
43457;SDS011;29046;54.184;18.680;2023-11-19T08:35:29;31.63;;;14.88;;
43457;SDS011;29046;54.184;18.680;2023-11-19T08:37:57;27.75;;;14.15;;
43457;SDS011;29046;54.184;18.680;2023-11-19T08:40:25;30.02;;;15.75;;
43457;SDS011;29046;54.184;18.680;2023-11-19T08:42:53;31.00;;;13.75;;
43457;SDS011;29046;54.184;18.680;2023-11-19T08:45:21;31.00;;;16.02;;
43457;SDS011;29046;54.184;18.680;2023-11-19T08:47:48;32.85;;;16.52;;
43457;SDS011;29046;54.184;18.680;2023-11-19T08:50:17;29.70;;;15.80;;
43457;SDS011;29046;54.184;18.680;2023-11-19T08:52:45;25.85;;;13.32;;
43457;SDS011;29046;54.184;18.680;2023-11-19T08:55:12;32.78;;;16.13;;
43457;SDS011;29046;54.184;18.680;2023-11-19T08:57:40;36.42;;;16.80;;
43457;SDS011;29046;54.184;18.680;2023-11-19T09:00:08;28.33;;;13.80;;
43457;SDS011;29046;54.184;18.680;2023-11-19T09:02:36;27.13;;;15.05;;
43457;SDS011;29046;54.184;18.680;2023-11-19T09:05:04;31.35;;;15.52;;
43457;SDS011;29046;54.184;18.680;2023-11-19T09:07:34;27.42;;;14.98;;
43457;SDS011;29046;54.184;18.680;2023-11-19T09:10:02;33.88;;;16.02;;
43457;SDS011;29046;54.184;18.680;2023-11-19T09:12:32;30.80;;;15.30;;
43457;SDS011;29046;54.184;18.680;2023-11-19T09:14:59;26.48;;;12.15;;
43457;SDS011;29046;54.184;18.680;2023-11-19T09:17:27;20.75;;;11.85;;
43457;SDS011;29046;54.184;18.680;2023-11-19T09:19:55;18.30;;;11.05;;
43457;SDS011;29046;54.184;18.680;2023-11-19T09:22:23;29.10;;;14.00;;
43457;SDS011;29046;54.184;18.680;2023-11-19T09:24:50;20.73;;;11.57;;
43457;SDS011;29046;54.184;18.680;2023-11-19T09:27:18;24.00;;;13.75;;
43457;SDS011;29046;54.184;18.680;2023-11-19T09:29:47;31.90;;;14.48;;
43457;SDS011;29046;54.184;18.680;2023-11-19T09:32:16;28.92;;;15.10;;
43457;SDS011;29046;54.184;18.680;2023-11-19T09:34:44;28.17;;;15.75;;
43457;SDS011;29046;54.184;18.680;2023-11-19T09:37:13;27.30;;;14.05;;
43457;SDS011;29046;54.184;18.680;2023-11-19T09:39:43;28.02;;;15.23;;
43457;SDS011;29046;54.184;18.680;2023-11-19T09:42:12;29.92;;;16.42;;
43457;SDS011;29046;54.184;18.680;2023-11-19T09:44:39;25.02;;;14.13;;
43457;SDS011;29046;54.184;18.680;2023-11-19T09:47:08;30.80;;;15.77;;
43457;SDS011;29046;54.184;18.680;2023-11-19T09:49:36;29.30;;;14.00;;
43457;SDS011;29046;54.184;18.680;2023-11-19T09:52:04;26.10;;;15.20;;
43457;SDS011;29046;54.184;18.680;2023-11-19T09:54:31;27.88;;;13.82;;
43457;SDS011;29046;54.184;18.680;2023-11-19T09:56:59;30.88;;;15.85;;
43457;SDS011;29046;54.184;18.680;2023-11-19T09:59:31;33.28;;;15.38;;
43457;SDS011;29046;54.184;18.680;2023-11-19T10:02:00;29.02;;;14.90;;
43457;SDS011;29046;54.184;18.680;2023-11-19T10:04:29;29.23;;;15.90;;
43457;SDS011;29046;54.184;18.680;2023-11-19T10:06:57;26.48;;;14.20;;
43457;SDS011;29046;54.184;18.680;2023-11-19T10:09:25;36.60;;;16.15;;
43457;SDS011;29046;54.184;18.680;2023-11-19T10:11:53;39.25;;;19.83;;
43457;SDS011;29046;54.184;18.680;2023-11-19T10:14:22;40.58;;;18.52;;
43457;SDS011;29046;54.184;18.680;2023-11-19T10:16:51;37.67;;;19.20;;
43457;SDS011;29046;54.184;18.680;2023-11-19T10:19:19;34.92;;;17.73;;
43457;SDS011;29046;54.184;18.680;2023-11-19T10:21:50;29.17;;;15.07;;
43457;SDS011;29046;54.184;18.680;2023-11-19T10:24:21;33.85;;;17.00;;
43457;SDS011;29046;54.184;18.680;2023-11-19T10:26:59;36.00;;;18.38;;
43457;SDS011;29046;54.184;18.680;2023-11-19T10:29:29;31.85;;;15.93;;
43457;SDS011;29046;54.184;18.680;2023-11-19T10:31:58;44.33;;;18.05;;
43457;SDS011;29046;54.184;18.680;2023-11-19T10:34:45;30.30;;;16.20;;
43457;SDS011;29046;54.184;18.680;2023-11-19T10:37:28;46.63;;;19.13;;
43457;SDS011;29046;54.184;18.680;2023-11-19T10:40:01;40.53;;;18.50;;
43457;SDS011;29046;54.184;18.680;2023-11-19T10:42:32;37.30;;;17.63;;
43457;SDS011;29046;54.184;18.680;2023-11-19T10:44:59;38.10;;;16.52;;
43457;SDS011;29046;54.184;18.680;2023-11-19T10:47:27;38.72;;;17.17;;
43457;SDS011;29046;54.184;18.680;2023-11-19T10:49:59;32.37;;;17.60;;
43457;SDS011;29046;54.184;18.680;2023-11-19T10:52:27;41.97;;;19.90;;
43457;SDS011;29046;54.184;18.680;2023-11-19T10:54:55;34.53;;;16.45;;
43457;SDS011;29046;54.184;18.680;2023-11-19T10:57:25;36.30;;;16.08;;
43457;SDS011;29046;54.184;18.680;2023-11-19T10:59:55;45.22;;;20.83;;
43457;SDS011;29046;54.184;18.680;2023-11-19T11:02:29;34.97;;;17.02;;
43457;SDS011;29046;54.184;18.680;2023-11-19T11:04:57;38.08;;;17.40;;
43457;SDS011;29046;54.184;18.680;2023-11-19T11:07:27;38.72;;;18.80;;
43457;SDS011;29046;54.184;18.680;2023-11-19T11:10:05;47.60;;;21.55;;
43457;SDS011;29046;54.184;18.680;2023-11-19T11:12:36;36.88;;;17.67;;
43457;SDS011;29046;54.184;18.680;2023-11-19T11:15:09;41.83;;;19.98;;
43457;SDS011;29046;54.184;18.680;2023-11-19T11:17:42;38.08;;;18.38;;
43457;SDS011;29046;54.184;18.680;2023-11-19T11:20:11;44.10;;;20.27;;
43457;SDS011;29046;54.184;18.680;2023-11-19T11:25:52;37.05;;;17.45;;
43457;SDS011;29046;54.184;18.680;2023-11-19T11:28:58;41.70;;;20.35;;
43457;SDS011;29046;54.184;18.680;2023-11-19T11:36:28;41.47;;;20.35;;
43457;SDS011;29046;54.184;18.680;2023-11-19T11:38:56;44.70;;;20.88;;
43457;SDS011;29046;54.184;18.680;2023-11-19T11:41:27;45.08;;;21.63;;
43457;SDS011;29046;54.184;18.680;2023-11-19T11:43:56;48.65;;;20.67;;
43457;SDS011;29046;54.184;18.680;2023-11-19T11:49:04;52.20;;;25.15;;
43457;SDS011;29046;54.184;18.680;2023-11-19T11:54:09;48.85;;;23.10;;
43457;SDS011;29046;54.184;18.680;2023-11-19T11:56:37;51.25;;;24.48;;
43457;SDS011;29046;54.184;18.680;2023-11-19T11:59:08;39.42;;;19.23;;
43457;SDS011;29046;54.184;18.680;2023-11-19T12:02:00;52.42;;;24.55;;
43457;SDS011;29046;54.184;18.680;2023-11-19T12:04:28;53.47;;;23.85;;
43457;SDS011;29046;54.184;18.680;2023-11-19T12:09:33;51.83;;;25.13;;
43457;SDS011;29046;54.184;18.680;2023-11-19T12:20:05;41.00;;;21.88;;
43457;SDS011;29046;54.184;18.680;2023-11-19T12:22:38;50.65;;;26.23;;
43457;SDS011;29046;54.184;18.680;2023-11-19T12:25:07;55.75;;;25.02;;
43457;SDS011;29046;54.184;18.680;2023-11-19T12:27:35;53.92;;;23.63;;
43457;SDS011;29046;54.184;18.680;2023-11-19T12:30:04;49.45;;;24.13;;
43457;SDS011;29046;54.184;18.680;2023-11-19T12:35:07;50.60;;;24.67;;
43457;SDS011;29046;54.184;18.680;2023-11-19T12:37:47;51.88;;;23.35;;
43457;SDS011;29046;54.184;18.680;2023-11-19T12:40:16;59.97;;;26.25;;
43457;SDS011;29046;54.184;18.680;2023-11-19T12:42:45;60.95;;;25.67;;
43457;SDS011;29046;54.184;18.680;2023-11-19T12:45:13;75.50;;;28.45;;
43457;SDS011;29046;54.184;18.680;2023-11-19T12:47:41;62.47;;;25.30;;
43457;SDS011;29046;54.184;18.680;2023-11-19T12:50:09;68.97;;;26.00;;
43457;SDS011;29046;54.184;18.680;2023-11-19T12:52:37;74.28;;;28.60;;
43457;SDS011;29046;54.184;18.680;2023-11-19T12:55:05;75.40;;;30.38;;
43457;SDS011;29046;54.184;18.680;2023-11-19T12:57:56;64.68;;;24.25;;
43457;SDS011;29046;54.184;18.680;2023-11-19T13:00:26;50.90;;;23.30;;
43457;SDS011;29046;54.184;18.680;2023-11-19T13:02:56;82.68;;;31.40;;
43457;SDS011;29046;54.184;18.680;2023-11-19T13:05:28;60.58;;;26.70;;
43457;SDS011;29046;54.184;18.680;2023-11-19T13:08:01;62.58;;;28.77;;
43457;SDS011;29046;54.184;18.680;2023-11-19T13:10:29;77.35;;;30.27;;
43457;SDS011;29046;54.184;18.680;2023-11-19T13:13:01;66.53;;;27.90;;
43457;SDS011;29046;54.184;18.680;2023-11-19T13:15:29;61.53;;;27.27;;
43457;SDS011;29046;54.184;18.680;2023-11-19T13:17:56;62.55;;;28.17;;
43457;SDS011;29046;54.184;18.680;2023-11-19T13:20:24;56.10;;;24.77;;
43457;SDS011;29046;54.184;18.680;2023-11-19T13:22:55;63.35;;;28.33;;
43457;SDS011;29046;54.184;18.680;2023-11-19T13:25:23;63.85;;;27.48;;
43457;SDS011;29046;54.184;18.680;2023-11-19T13:27:50;54.20;;;27.10;;
43457;SDS011;29046;54.184;18.680;2023-11-19T13:30:19;69.20;;;26.88;;
43457;SDS011;29046;54.184;18.680;2023-11-19T13:32:50;57.05;;;25.58;;
43457;SDS011;29046;54.184;18.680;2023-11-19T13:35:18;66.97;;;27.75;;
43457;SDS011;29046;54.184;18.680;2023-11-19T13:37:46;69.38;;;30.13;;
43457;SDS011;29046;54.184;18.680;2023-11-19T13:40:14;55.45;;;25.67;;
43457;SDS011;29046;54.184;18.680;2023-11-19T13:42:42;58.67;;;25.50;;
43457;SDS011;29046;54.184;18.680;2023-11-19T13:45:11;59.72;;;25.90;;
43457;SDS011;29046;54.184;18.680;2023-11-19T13:47:40;54.83;;;24.10;;
43457;SDS011;29046;54.184;18.680;2023-11-19T13:50:12;59.35;;;25.88;;
43457;SDS011;29046;54.184;18.680;2023-11-19T13:52:41;61.50;;;26.03;;
43457;SDS011;29046;54.184;18.680;2023-11-19T13:55:12;56.28;;;24.17;;
43457;SDS011;29046;54.184;18.680;2023-11-19T13:57:40;50.58;;;22.55;;
43457;SDS011;29046;54.184;18.680;2023-11-19T14:00:08;55.58;;;25.40;;
43457;SDS011;29046;54.184;18.680;2023-11-19T14:02:40;58.47;;;23.88;;
43457;SDS011;29046;54.184;18.680;2023-11-19T14:05:08;55.50;;;25.13;;
43457;SDS011;29046;54.184;18.680;2023-11-19T14:07:38;52.00;;;24.38;;
43457;SDS011;29046;54.184;18.680;2023-11-19T14:10:05;60.83;;;24.42;;
43457;SDS011;29046;54.184;18.680;2023-11-19T14:12:33;60.15;;;23.75;;
43457;SDS011;29046;54.184;18.680;2023-11-19T14:15:02;58.67;;;23.88;;
43457;SDS011;29046;54.184;18.680;2023-11-19T14:17:29;61.55;;;26.17;;
43457;SDS011;29046;54.184;18.680;2023-11-19T14:19:57;61.40;;;25.92;;
43457;SDS011;29046;54.184;18.680;2023-11-19T14:22:25;68.53;;;27.90;;
43457;SDS011;29046;54.184;18.680;2023-11-19T14:24:52;78.97;;;29.80;;
43457;SDS011;29046;54.184;18.680;2023-11-19T14:27:22;64.90;;;26.27;;
43457;SDS011;29046;54.184;18.680;2023-11-19T14:29:49;62.88;;;25.52;;
43457;SDS011;29046;54.184;18.680;2023-11-19T14:32:18;58.00;;;24.98;;
43457;SDS011;29046;54.184;18.680;2023-11-19T14:34:45;60.45;;;24.80;;
43457;SDS011;29046;54.184;18.680;2023-11-19T14:37:13;60.58;;;25.80;;
43457;SDS011;29046;54.184;18.680;2023-11-19T14:39:41;54.45;;;25.70;;
43457;SDS011;29046;54.184;18.680;2023-11-19T14:42:12;54.85;;;24.95;;
43457;SDS011;29046;54.184;18.680;2023-11-19T14:44:40;51.17;;;22.23;;